Time;durP1;ratioP1;P1;durP2;ratioP2;P2;SDS_P1;SDS_P2;PMS_P1;PMS_P2;Temp;Humidity;BMP_temperature;BMP_pressure;BME280_temperature;BME280_humidity;BME280_pressure;Samples;Min_cycle;Max_cycle;Signal;HPM_P1;HPM_P2
2021/06/07 00:01:00;;;;;;;;;;;;;;;21.84;54.01;100849.66;5019037;28;777;-60
2021/06/07 00:03:25;;;;;;;;;;;;;;;21.55;53.55;100855.50;5019341;28;968;-60
2021/06/07 00:05:51;;;;;;;;;;;;;;;21.49;52.08;100849.22;5014144;28;864;-60
2021/06/07 00:08:17;;;;;;;;;;;;;;;21.12;51.55;100841.84;5013748;28;1333;-60
2021/06/07 00:10:43;;;;;;;;;;;;;;;21.06;51.01;100854.94;5019293;28;1112;-59
2021/06/07 00:13:09;;;;;;;;;;;;;;;21.09;51.29;100851.56;5018798;28;1910;-60
2021/06/07 00:15:34;;;;;;;;;;;;;;;21.19;51.73;100848.63;5018920;28;1074;-60
2021/06/07 00:18:01;;;;;;;;;;;;;;;21.18;52.12;100843.38;5020176;28;1043;-59
2021/06/07 00:20:26;;;;;;;;;;;;;;;21.17;52.41;100841.78;5038476;28;852;-59
2021/06/07 00:22:52;;;;;;;;;;;;;;;21.25;52.51;100835.53;5038235;28;780;-59
2021/06/07 00:25:17;;;;;;;;;;;;;;;21.24;52.53;100833.06;5038554;28;1140;-60
2021/06/07 00:27:43;;;;;;;;;;;;;;;21.29;52.40;100824.69;5038290;28;761;-60
2021/06/07 00:30:08;;;;;;;;;;;;;;;21.18;52.63;100830.41;5038602;28;812;-59
2021/06/07 00:32:34;;;;;;;;;;;;;;;21.20;53.03;100828.13;5038190;28;1922;-59
2021/06/07 00:34:59;;;;;;;;;;;;;;;21.29;52.49;100831.03;5038156;28;802;-59
2021/06/07 00:37:25;;;;;;;;;;;;;;;21.19;52.70;100820.16;5037768;28;682;-60
2021/06/07 00:39:50;;;;;;;;;;;;;;;21.24;52.49;100820.06;5038370;28;765;-60
2021/06/07 00:42:16;;;;;;;;;;;;;;;21.10;52.97;100825.56;5019481;28;807;-59
2021/06/07 00:44:41;;;;;;;;;;;;;;;21.12;53.11;100831.59;5019639;28;805;-60
2021/06/07 00:47:07;;;;;;;;;;;;;;;21.45;53.26;100826.03;5037348;28;913;-59
2021/06/07 00:49:32;;;;;;;;;;;;;;;21.61;53.02;100828.53;5037803;28;860;-59
2021/06/07 00:51:58;;;;;;;;;;;;;;;21.60;52.62;100832.44;5037814;28;744;-59
2021/06/07 00:54:23;;;;;;;;;;;;;;;21.05;53.33;100831.19;5037775;28;1975;-59
2021/06/07 00:56:48;;;;;;;;;;;;;;;21.10;52.05;100825.56;5037864;28;760;-60
2021/06/07 00:59:14;;;;;;;;;;;;;;;21.04;52.06;100829.53;5037458;28;792;-59
2021/06/07 01:01:39;;;;;;;;;;;;;;;21.08;52.29;100821.47;5037616;28;1194;-59
2021/06/07 01:04:05;;;;;;;;;;;;;;;21.19;52.05;100820.97;5019977;28;1222;-60
2021/06/07 01:06:32;;;;;;;;;;;;;;;21.34;51.81;100814.34;5037520;28;843;-60
2021/06/07 01:08:57;;;;;;;;;;;;;;;21.11;52.72;100824.44;5019168;28;811;-60
2021/06/07 01:11:23;;;;;;;;;;;;;;;21.44;52.28;100809.75;5037742;28;772;-60
2021/06/07 01:13:49;;;;;;;;;;;;;;;21.26;52.50;100811.47;5037514;28;1977;-60
2021/06/07 01:16:14;;;;;;;;;;;;;;;21.42;52.33;100812.00;5037352;28;1187;-60
2021/06/07 01:18:40;;;;;;;;;;;;;;;21.33;52.64;100825.72;5019596;28;976;-60
2021/06/07 01:21:12;;;;;;;;;;;;;;;21.33;52.68;100822.94;5020352;28;770;-59
2021/06/07 01:23:38;;;;;;;;;;;;;;;21.35;53.09;100829.00;5037066;28;824;-60
2021/06/07 01:26:04;;;;;;;;;;;;;;;21.62;53.36;100824.66;5036282;28;797;-59
2021/06/07 01:28:29;;;;;;;;;;;;;;;21.85;53.41;100826.41;5036992;28;724;-60
2021/06/07 01:30:55;;;;;;;;;;;;;;;21.95;53.64;100824.53;5036040;28;968;-59
2021/06/07 01:33:21;;;;;;;;;;;;;;;21.59;53.90;100822.47;5036676;28;1922;-59
2021/06/07 01:35:47;;;;;;;;;;;;;;;21.59;52.99;100816.94;5036928;28;848;-59
2021/06/07 01:38:12;;;;;;;;;;;;;;;21.55;51.76;100810.41;5019406;28;816;-59
2021/06/07 01:40:42;;;;;;;;;;;;;;;21.34;51.40;100816.28;5037220;28;858;-59
2021/06/07 01:43:07;;;;;;;;;;;;;;;21.12;51.58;100828.84;5036742;28;784;-60
2021/06/07 01:45:33;;;;;;;;;;;;;;;21.23;51.88;100831.44;5036922;28;796;-60
2021/06/07 01:47:59;;;;;;;;;;;;;;;21.18;52.98;100830.41;5036495;28;932;-60
2021/06/07 01:50:24;;;;;;;;;;;;;;;21.30;53.12;100831.84;5036293;28;832;-59
2021/06/07 01:52:50;;;;;;;;;;;;;;;21.28;53.44;100829.41;5019386;28;1909;-59
2021/06/07 01:55:16;;;;;;;;;;;;;;;21.37;53.73;100826.75;5036518;28;788;-60
2021/06/07 01:57:42;;;;;;;;;;;;;;;21.38;53.75;100833.94;5036251;28;828;-59
2021/06/07 02:00:08;;;;;;;;;;;;;;;21.82;52.95;100835.31;5036584;28;745;-59
2021/06/07 02:02:35;;;;;;;;;;;;;;;21.63;53.76;100824.34;5035915;28;1196;-59
2021/06/07 02:05:00;;;;;;;;;;;;;;;21.75;53.48;100823.81;5001714;28;985;-59
2021/06/07 02:07:26;;;;;;;;;;;;;;;21.77;53.39;100835.41;5036986;28;826;-59
2021/06/07 02:09:51;;;;;;;;;;;;;;;21.90;53.38;100838.50;5036539;28;789;-60
2021/06/07 02:12:17;;;;;;;;;;;;;;;21.86;53.35;100827.22;5036303;28;852;-59
2021/06/07 02:14:42;;;;;;;;;;;;;;;21.90;53.24;100828.25;5036502;28;1910;-59
2021/06/07 02:17:07;;;;;;;;;;;;;;;21.92;53.42;100833.47;5035997;28;1045;-59
2021/06/07 02:19:33;;;;;;;;;;;;;;;22.06;52.93;100834.25;5035793;28;800;-59
2021/06/07 02:21:58;;;;;;;;;;;;;;;21.99;53.17;100828.31;5036479;28;852;-61
2021/06/07 02:24:27;;;;;;;;;;;;;;;21.97;53.43;100833.38;5036300;28;856;-60
2021/06/07 02:26:52;;;;;;;;;;;;;;;21.85;53.81;100843.00;5035739;28;792;-60
2021/06/07 02:29:17;;;;;;;;;;;;;;;22.03;53.29;100843.19;5036306;28;749;-61
2021/06/07 02:31:43;;;;;;;;;;;;;;;22.04;53.18;100842.88;5036048;28;975;-61
2021/06/07 02:34:10;;;;;;;;;;;;;;;21.83;53.98;100845.25;5036286;28;1987;-60
2021/06/07 02:36:36;;;;;;;;;;;;;;;21.98;53.62;100840.53;5002397;28;842;-60
2021/06/07 02:39:11;;;;;;;;;;;;;;;21.95;53.61;100843.91;5036130;28;709;-60
2021/06/07 02:41:37;;;;;;;;;;;;;;;21.97;53.62;100847.22;5036234;28;800;-60
2021/06/07 02:44:02;;;;;;;;;;;;;;;21.90;53.69;100844.03;5036447;28;883;-60
2021/06/07 02:46:28;;;;;;;;;;;;;;;21.90;53.95;100838.50;5036095;28;823;-60
2021/06/07 02:48:53;;;;;;;;;;;;;;;21.90;53.34;100838.50;5017364;28;976;-60
2021/06/07 02:51:19;;;;;;;;;;;;;;;21.97;53.82;100845.25;5036120;28;800;-58
2021/06/07 02:53:44;;;;;;;;;;;;;;;22.12;53.42;100852.44;5017870;28;1946;-58
2021/06/07 02:56:10;;;;;;;;;;;;;;;22.31;53.00;100859.78;5035162;28;824;-59
2021/06/07 02:58:35;;;;;;;;;;;;;;;21.91;54.11;100859.50;5018310;28;1123;-58
2021/06/07 03:01:04;;;;;;;;;;;;;;;21.26;56.26;100861.25;5035995;28;777;-58
2021/06/07 03:03:29;;;;;;;;;;;;;;;21.25;55.66;100862.38;5035778;28;1156;-59
2021/06/07 03:05:55;;;;;;;;;;;;;;;21.13;56.15;100871.16;5020468;28;794;-58
2021/06/07 03:08:21;;;;;;;;;;;;;;;21.57;55.67;100867.06;5039783;28;753;-59
2021/06/07 03:10:48;;;;;;;;;;;;;;;21.75;54.52;100876.41;5022210;28;801;-59
2021/06/07 03:13:13;;;;;;;;;;;;;;;21.78;53.57;100873.03;5039483;28;1910;-59
2021/06/07 03:15:39;;;;;;;;;;;;;;;21.69;52.81;100867.38;5038880;28;978;-59
2021/06/07 03:18:04;;;;;;;;;;;;;;;21.40;51.75;100870.38;5021529;28;1164;-61
2021/06/07 03:20:30;;;;;;;;;;;;;;;21.01;51.47;100871.59;5021906;28;1307;-61
2021/06/07 03:22:59;;;;;;;;;;;;;;;21.15;51.40;100875.25;5038685;28;768;-60
2021/06/07 03:25:24;;;;;;;;;;;;;;;21.15;52.25;100871.66;5040097;28;732;-59
2021/06/07 03:27:50;;;;;;;;;;;;;;;21.25;52.72;100874.25;5039129;28;764;-59
2021/06/07 03:30:16;;;;;;;;;;;;;;;21.38;53.31;100880.94;5039733;28;740;-62
2021/06/07 03:32:41;;;;;;;;;;;;;;;21.32;53.86;100884.91;5038811;28;1906;-60
2021/06/07 03:35:07;;;;;;;;;;;;;;;21.58;53.70;100887.28;5039316;28;823;-65
2021/06/07 03:37:33;;;;;;;;;;;;;;;21.67;53.07;100890.94;5039056;28;736;-61
2021/06/07 03:39:58;;;;;;;;;;;;;;;21.43;52.50;100886.38;5038980;28;764;-61
2021/06/07 03:42:24;;;;;;;;;;;;;;;20.94;52.86;100879.47;5038857;28;756;-60
2021/06/07 03:44:49;;;;;;;;;;;;;;;21.19;52.46;100887.31;5021561;28;868;-62
2021/06/07 03:47:14;;;;;;;;;;;;;;;21.15;52.49;100891.00;5038779;28;994;-61
2021/06/07 03:49:40;;;;;;;;;;;;;;;21.27;52.11;100887.78;5037748;28;1089;-59
2021/06/07 03:52:06;;;;;;;;;;;;;;;21.27;51.98;100894.13;5039020;28;792;-59
2021/06/07 03:54:31;;;;;;;;;;;;;;;21.32;51.83;100896.81;5020882;28;1969;-61
2021/06/07 03:56:56;;;;;;;;;;;;;;;21.12;52.48;100895.19;5034107;28;992;-61
2021/06/07 03:59:22;;;;;;;;;;;;;;;21.11;52.89;100896.34;5021370;28;796;-61
2021/06/07 04:01:47;;;;;;;;;;;;;;;21.17;52.67;100895.13;5038736;28;1235;-60
2021/06/07 04:04:13;;;;;;;;;;;;;;;21.13;52.82;100894.09;5038610;28;991;-60
2021/06/07 04:06:38;;;;;;;;;;;;;;;21.25;52.32;100898.31;5038835;28;785;-60
2021/06/07 04:09:04;;;;;;;;;;;;;;;21.33;52.44;100892.09;5038989;28;737;-61
2021/06/07 04:11:29;;;;;;;;;;;;;;;21.53;53.01;100893.69;5038809;28;773;-62
2021/06/07 04:13:55;;;;;;;;;;;;;;;21.44;53.85;100892.75;5038625;28;1902;-61
2021/06/07 04:16:20;;;;;;;;;;;;;;;21.45;52.88;100886.91;5038198;28;1045;-61
2021/06/07 04:18:45;;;;;;;;;;;;;;;21.36;52.18;100885.94;5037570;28;948;-57
2021/06/07 04:21:11;;;;;;;;;;;;;;;21.08;51.89;100874.00;5038574;28;860;-60
2021/06/07 04:23:36;;;;;;;;;;;;;;;20.99;51.95;100876.63;5038521;28;753;-60
2021/06/07 04:26:02;;;;;;;;;;;;;;;20.88;51.75;100887.03;5038461;28;764;-60
2021/06/07 04:28:27;;;;;;;;;;;;;;;20.76;52.01;100893.00;5038447;28;807;-60
2021/06/07 04:30:53;;;;;;;;;;;;;;;21.09;53.22;100887.50;5038616;28;788;-60
2021/06/07 04:33:18;;;;;;;;;;;;;;;21.29;54.10;100891.06;5037301;28;1910;-59
2021/06/07 04:35:44;;;;;;;;;;;;;;;21.35;54.09;100889.84;5038376;28;895;-59
2021/06/07 04:38:09;;;;;;;;;;;;;;;21.59;53.06;100891.66;5038722;28;1010;-59
2021/06/07 04:40:35;;;;;;;;;;;;;;;21.35;52.76;100898.16;5038127;28;748;-58
2021/06/07 04:43:01;;;;;;;;;;;;;;;21.19;52.66;100898.38;5038409;28;808;-60
2021/06/07 04:45:27;;;;;;;;;;;;;;;21.32;52.76;100901.50;5038266;28;871;-58
2021/06/07 04:47:53;;;;;;;;;;;;;;;21.53;52.89;100908.38;5037458;28;936;-59
2021/06/07 04:50:19;;;;;;;;;;;;;;;21.67;52.91;100907.56;5038288;28;788;-58
2021/06/07 04:53:05;;;;;;;;;;;;;;;21.61;53.36;100911.56;5038222;28;1967;-58
2021/06/07 04:55:40;;;;;;;;;;;;;;;21.55;53.58;100912.78;5037386;28;1386;-57
2021/06/07 04:58:06;;;;;;;;;;;;;;;21.60;53.68;100918.22;5037952;28;749;-53
2021/06/07 05:00:32;;;;;;;;;;;;;;;21.60;53.88;100910.75;5020301;28;900;-61
2021/06/07 05:02:57;;;;;;;;;;;;;;;21.65;53.90;100918.13;5037223;28;1113;-61
2021/06/07 05:05:23;;;;;;;;;;;;;;;21.89;53.45;100920.72;5038342;28;827;-60
2021/06/07 05:07:48;;;;;;;;;;;;;;;21.84;53.54;100913.34;5037778;28;859;-48
2021/06/07 05:10:14;;;;;;;;;;;;;;;21.80;54.00;100922.56;5037367;28;855;-60
2021/06/07 05:12:39;;;;;;;;;;;;;;;21.80;53.82;100923.38;5037615;28;1919;-49
2021/06/07 05:15:06;;;;;;;;;;;;;;;21.86;53.66;100922.13;5037776;28;852;-55
2021/06/07 05:17:31;;;;;;;;;;;;;;;21.94;53.65;100917.03;5036807;28;1030;-59
2021/06/07 05:19:57;;;;;;;;;;;;;;;22.01;53.62;100917.44;5037521;28;1135;-52
2021/06/07 05:22:22;;;;;;;;;;;;;;;22.09;53.35;100918.66;5018936;28;1143;-56
2021/06/07 05:24:48;;;;;;;;;;;;;;;22.13;53.34;100919.69;5037019;28;796;-60
2021/06/07 05:27:13;;;;;;;;;;;;;;;22.26;53.34;100923.59;5037308;28;779;-60
2021/06/07 05:29:39;;;;;;;;;;;;;;;22.17;53.64;100921.53;5037447;28;883;-59
2021/06/07 05:32:05;;;;;;;;;;;;;;;22.10;53.71;100909.25;5036321;28;999;-60
2021/06/07 05:34:30;;;;;;;;;;;;;;;22.03;54.02;100913.25;5037096;28;1973;-50
2021/06/07 05:36:55;;;;;;;;;;;;;;;21.74;54.85;100912.69;5037598;28;772;-58
2021/06/07 05:39:21;;;;;;;;;;;;;;;21.24;56.46;100910.50;5018850;28;1107;-60
2021/06/07 05:41:47;;;;;;;;;;;;;;;21.09;56.11;100909.63;5037205;28;864;-59
2021/06/07 05:44:12;;;;;;;;;;;;;;;21.08;57.13;100907.16;5037555;28;766;-57
2021/06/07 05:46:38;;;;;;;;;;;;;;;21.60;55.29;100912.69;5036749;28;784;-60
2021/06/07 05:49:03;;;;;;;;;;;;;;;22.04;53.94;100916.84;5036381;28;1014;-59
2021/06/07 05:51:28;;;;;;;;;;;;;;;22.03;53.84;100915.19;5018761;28;861;-60
2021/06/07 05:53:54;;;;;;;;;;;;;;;22.00;54.03;100915.81;5036727;28;2006;-59
2021/06/07 05:56:19;;;;;;;;;;;;;;;22.13;53.61;100920.53;5036674;28;749;-59
2021/06/07 05:58:45;;;;;;;;;;;;;;;22.14;53.53;100921.34;5035734;28;1100;-59
2021/06/07 06:01:10;;;;;;;;;;;;;;;21.99;53.98;100920.53;5019367;28;820;-59
2021/06/07 06:03:36;;;;;;;;;;;;;;;22.12;53.73;100918.88;5035793;28;1199;-58
2021/06/07 06:06:02;;;;;;;;;;;;;;;22.32;53.34;100912.09;5036841;28;769;-58
2021/06/07 06:08:27;;;;;;;;;;;;;;;22.37;53.16;100913.97;5036790;28;831;-61
2021/06/07 06:10:53;;;;;;;;;;;;;;;22.08;54.10;100911.47;5036580;28;777;-59
2021/06/07 06:13:18;;;;;;;;;;;;;;;21.62;55.35;100918.75;5036348;28;1909;-60
2021/06/07 06:15:44;;;;;;;;;;;;;;;21.26;56.33;100919.31;5018440;28;1083;-59
2021/06/07 06:18:09;;;;;;;;;;;;;;;20.85;55.58;100920.78;5035937;28;1015;-62
2021/06/07 06:20:35;;;;;;;;;;;;;;;21.40;56.34;100922.94;5018769;28;1386;-57
2021/06/07 06:23:00;;;;;;;;;;;;;;;21.69;55.39;100924.69;5018377;28;840;-50
2021/06/07 06:25:26;;;;;;;;;;;;;;;22.05;54.37;100916.53;5036497;28;760;-50
2021/06/07 06:27:52;;;;;;;;;;;;;;;22.04;54.12;100922.38;5018686;28;1406;-54
2021/06/07 06:30:19;;;;;;;;;;;;;;;22.15;54.00;100921.03;5036433;28;768;-59
2021/06/07 06:32:45;;;;;;;;;;;;;;;22.21;53.72;100928.09;5035404;28;1906;-59
2021/06/07 06:35:11;;;;;;;;;;;;;;;22.29;53.68;100929.34;5036671;28;807;-55
2021/06/07 06:37:36;;;;;;;;;;;;;;;22.19;53.84;100924.84;5018808;28;760;-56
2021/06/07 06:40:03;;;;;;;;;;;;;;;22.14;53.97;100922.16;5038089;28;792;-58
2021/06/07 06:42:28;;;;;;;;;;;;;;;21.73;55.15;100931.25;5042584;28;777;-53
2021/06/07 06:44:54;;;;;;;;;;;;;;;21.54;55.29;100931.31;5042925;28;745;-59
2021/06/07 06:47:19;;;;;;;;;;;;;;;21.13;54.46;100932.78;5042156;28;932;-57
2021/06/07 06:49:45;;;;;;;;;;;;;;;21.66;55.68;100933.63;5025243;28;1091;-59
2021/06/07 06:52:10;;;;;;;;;;;;;;;22.00;54.67;100932.41;5042722;28;764;-59
2021/06/07 06:54:36;;;;;;;;;;;;;;;21.98;54.45;100929.97;5042371;28;1910;-60
2021/06/07 06:57:01;;;;;;;;;;;;;;;21.90;54.58;100940.94;5042633;28;828;-60
2021/06/07 06:59:27;;;;;;;;;;;;;;;22.18;53.84;100933.44;5042780;28;780;-61
2021/06/07 07:01:52;;;;;;;;;;;;;;;22.35;53.23;100924.53;5041609;28;1132;-61
2021/06/07 07:04:17;;;;;;;;;;;;;;;22.23;53.49;100927.78;5042364;28;991;-47
2021/06/07 07:06:43;;;;;;;;;;;;;;;22.21;53.65;100928.09;5042704;28;756;-60
2021/06/07 07:09:08;;;;;;;;;;;;;;;21.98;54.37;100924.41;5042192;28;789;-63
2021/06/07 07:11:34;;;;;;;;;;;;;;;21.57;55.65;100935.44;5042819;28;1023;-58
2021/06/07 07:14:01;;;;;;;;;;;;;;;21.38;54.96;100927.97;5042678;28;1917;-60
2021/06/07 07:16:26;;;;;;;;;;;;;;;21.49;55.35;100923.91;5042039;28;1017;-62
2021/06/07 07:18:52;;;;;;;;;;;;;;;22.01;54.24;100928.53;5041998;28;967;-64
2021/06/07 07:21:17;;;;;;;;;;;;;;;22.05;54.12;100924.03;5042535;28;829;-64
2021/06/07 07:23:42;;;;;;;;;;;;;;;22.32;53.34;100925.13;5023143;28;818;-61
2021/06/07 07:26:08;;;;;;;;;;;;;;;22.19;53.74;100922.06;5042247;28;804;-62
2021/06/07 07:28:33;;;;;;;;;;;;;;;22.34;53.21;100922.91;5042577;28;764;-60
2021/06/07 07:30:59;;;;;;;;;;;;;;;22.05;53.99;100913.75;5041949;28;852;-57
2021/06/07 07:33:24;;;;;;;;;;;;;;;21.55;55.42;100923.84;5023546;28;1910;-60
2021/06/07 07:35:50;;;;;;;;;;;;;;;21.44;55.14;100923.16;5042182;28;812;-48
2021/06/07 07:38:15;;;;;;;;;;;;;;;21.08;54.27;100927.31;5041952;28;876;-60
2021/06/07 07:40:42;;;;;;;;;;;;;;;21.53;55.68;100927.75;5042635;28;827;-61
2021/06/07 07:43:10;;;;;;;;;;;;;;;21.93;54.62;100929.25;5042332;28;888;-58
2021/06/07 07:45:36;;;;;;;;;;;;;;;22.07;53.97;100926.47;5024057;28;760;-59
2021/06/07 07:48:02;;;;;;;;;;;;;;;22.19;53.51;100919.28;5041685;28;999;-61
2021/06/07 07:50:28;;;;;;;;;;;;;;;22.14;53.86;100919.38;5042644;28;749;-57
2021/06/07 07:52:53;;;;;;;;;;;;;;;22.39;52.93;100922.78;5037585;28;1906;-62
2021/06/07 07:55:20;;;;;;;;;;;;;;;22.25;53.35;100924.75;5039191;28;768;-62
2021/06/07 07:57:46;;;;;;;;;;;;;;;21.75;54.64;100925.41;5021197;28;1210;-61
2021/06/07 08:00:11;;;;;;;;;;;;;;;21.56;55.40;100931.84;5038577;28;815;-60
2021/06/07 08:02:40;;;;;;;;;;;;;;;21.17;54.86;100933.84;5038254;28;1121;-54
2021/06/07 08:05:06;;;;;;;;;;;;;;;21.36;55.58;100941.28;5039032;28;566;-53
2021/06/07 08:07:32;;;;;;;;;;;;;;;21.65;55.33;100937.50;5038510;28;744;-54
2021/06/07 08:09:57;;;;;;;;;;;;;;;22.00;54.09;100932.41;5038898;28;756;-51
2021/06/07 08:12:22;;;;;;;;;;;;;;;22.21;53.54;100943.91;5038683;28;804;-52
2021/06/07 08:14:48;;;;;;;;;;;;;;;22.34;53.06;100939.50;5038322;28;1910;-49
2021/06/07 08:17:16;;;;;;;;;;;;;;;21.80;54.34;100939.97;5038047;28;1033;-58
2021/06/07 08:19:41;;;;;;;;;;;;;;;21.65;55.06;100937.50;5039156;28;845;-58
2021/06/07 08:22:07;;;;;;;;;;;;;;;21.34;55.02;100943.53;5038088;28;800;-58
2021/06/07 08:24:32;;;;;;;;;;;;;;;21.00;54.97;100936.34;5038662;28;784;-57
2021/06/07 08:26:57;;;;;;;;;;;;;;;21.68;55.21;100937.69;5020597;28;755;-52
2021/06/07 08:29:23;;;;;;;;;;;;;;;21.98;54.18;100929.13;5038652;28;752;-58
2021/06/07 08:31:48;;;;;;;;;;;;;;;21.97;53.98;100938.56;5038243;28;976;-59
2021/06/07 08:34:14;;;;;;;;;;;;;;;22.18;53.51;100936.22;5037883;28;1975;-51
2021/06/07 08:36:39;;;;;;;;;;;;;;;22.31;53.20;100926.25;5038349;28;796;-59
2021/06/07 08:39:05;;;;;;;;;;;;;;;22.15;53.54;100934.06;5038153;28;816;-51
2021/06/07 08:41:30;;;;;;;;;;;;;;;21.62;55.14;100940.88;5038363;28;815;-59
2021/06/07 08:43:56;;;;;;;;;;;;;;;21.58;54.88;100937.88;5038132;28;749;-56
2021/06/07 08:46:21;;;;;;;;;;;;;;;21.15;54.68;100936.09;5037892;28;736;-58
2021/06/07 08:48:47;;;;;;;;;;;;;;;21.53;55.71;100937.97;5037437;28;959;-61
2021/06/07 08:51:12;;;;;;;;;;;;;;;21.95;54.31;100938.03;5038152;28;824;-59
2021/06/07 08:53:38;;;;;;;;;;;;;;;22.11;53.71;100944.13;5037926;28;1913;-56
2021/06/07 08:56:03;;;;;;;;;;;;;;;22.17;53.43;100942.88;5020237;28;1128;-63
2021/06/07 08:58:29;;;;;;;;;;;;;;;22.33;53.08;100938.72;5038013;28;737;-63
2021/06/07 09:00:54;;;;;;;;;;;;;;;21.84;54.35;100943.78;5037609;28;828;-64
2021/06/07 09:03:20;;;;;;;;;;;;;;;21.71;54.77;100939.03;5037060;28;1188;-62
2021/06/07 09:05:53;;;;;;;;;;;;;;;21.35;54.32;100934.13;5020140;28;918;-61
2021/06/07 09:08:19;;;;;;;;;;;;;;;21.37;55.17;100935.44;5037398;28;884;-60
2021/06/07 09:10:45;;;;;;;;;;;;;;;21.80;54.38;100934.44;5019954;28;825;-62
2021/06/07 09:13:11;;;;;;;;;;;;;;;22.07;53.97;100935.59;5037586;28;1905;-61
2021/06/07 09:15:40;;;;;;;;;;;;;;;22.37;52.88;100933.34;5018903;28;1009;-61
2021/06/07 09:18:07;;;;;;;;;;;;;;;22.18;53.29;100933.44;5019124;28;1017;-60
2021/06/07 09:20:32;;;;;;;;;;;;;;;21.73;54.79;100931.25;5037625;28;812;-61
2021/06/07 09:22:59;;;;;;;;;;;;;;;21.72;54.65;100932.38;5035634;28;956;-61
2021/06/07 09:25:26;;;;;;;;;;;;;;;21.28;52.91;100928.97;5019477;28;813;-59
2021/06/07 09:28:05;;;;;;;;;;;;;;;21.70;55.00;100918.84;5037368;28;820;-57
2021/06/07 09:30:36;;;;;;;;;;;;;;;22.27;53.37;100914.16;5036914;28;835;-61
2021/06/07 09:33:19;;;;;;;;;;;;;;;22.42;52.68;100916.63;5036888;28;1987;-56
2021/06/07 09:35:44;;;;;;;;;;;;;;;22.53;52.24;100911.69;5037788;28;810;-59
2021/06/07 09:38:10;;;;;;;;;;;;;;;22.79;51.62;100909.16;5036715;28;784;-59
2021/06/07 09:40:35;;;;;;;;;;;;;;;22.73;51.58;100904.84;5037264;28;769;-59
2021/06/07 09:43:02;;;;;;;;;;;;;;;22.26;52.92;100902.25;5037129;28;737;-57
2021/06/07 09:45:46;;;;;;;;;;;;;;;22.14;53.31;100907.50;5036679;28;685;-58
2021/06/07 09:48:15;;;;;;;;;;;;;;;21.74;53.63;100904.41;5036457;28;972;-58
2021/06/07 09:50:53;;;;;;;;;;;;;;;21.47;52.93;100900.44;5019335;28;832;-58
2021/06/07 09:53:37;;;;;;;;;;;;;;;21.83;54.56;100894.25;5036699;28;1914;-58
2021/06/07 09:56:03;;;;;;;;;;;;;;;22.27;53.13;100900.31;5036843;28;817;-58
2021/06/07 09:58:31;;;;;;;;;;;;;;;22.37;52.61;100894.56;5036531;28;884;-58
2021/06/07 10:00:57;;;;;;;;;;;;;;;22.67;51.89;100893.06;5019349;28;678;-58
2021/06/07 10:03:25;;;;;;;;;;;;;;;22.10;53.37;100893.44;5035693;28;1128;-59
2021/06/07 10:05:58;;;;;;;;;;;;;;;22.04;53.71;100889.16;5034865;28;1079;-60
2021/06/07 10:08:24;;;;;;;;;;;;;;;21.75;53.14;100892.22;5036591;28;864;-61
2021/06/07 10:10:50;;;;;;;;;;;;;;;21.53;54.59;100897.31;5018924;28;728;-58
2021/06/07 10:13:15;;;;;;;;;;;;;;;22.14;53.57;100893.66;5018149;28;1914;-63
2021/06/07 10:15:42;;;;;;;;;;;;;;;22.49;52.22;100886.53;5035834;28;1132;-61
2021/06/07 10:18:12;;;;;;;;;;;;;;;22.73;51.51;100877.97;5035862;28;967;-61
2021/06/07 10:20:51;;;;;;;;;;;;;;;22.75;51.59;100871.28;5017835;28;899;-61
2021/06/07 10:23:23;;;;;;;;;;;;;;;22.13;53.36;100879.00;5036386;28;796;-60
2021/06/07 10:25:49;;;;;;;;;;;;;;;22.06;53.36;100873.03;5036340;28;821;-61
2021/06/07 10:28:14;;;;;;;;;;;;;;;21.49;53.30;100871.34;5035910;28;827;-60
2021/06/07 10:30:41;;;;;;;;;;;;;;;21.63;54.52;100865.03;5036594;28;717;-61
2021/06/07 10:33:22;;;;;;;;;;;;;;;22.19;53.35;100869.44;5018559;28;1991;-60
2021/06/07 10:35:48;;;;;;;;;;;;;;;22.50;52.09;100863.25;5035783;28;839;-61
2021/06/07 10:38:13;;;;;;;;;;;;;;;22.67;51.66;100870.09;5036288;28;705;-60
2021/06/07 10:40:42;;;;;;;;;;;;;;;22.04;53.48;100862.25;5036110;28;784;-56
2021/06/07 10:43:08;;;;;;;;;;;;;;;21.93;53.88;100865.56;5018004;28;1376;-59
2021/06/07 10:45:34;;;;;;;;;;;;;;;21.79;53.08;100858.06;5018671;28;868;-59
2021/06/07 10:48:00;;;;;;;;;;;;;;;21.52;53.68;100850.56;5035783;28;991;-59
2021/06/07 10:50:29;;;;;;;;;;;;;;;22.09;53.46;100857.75;5035759;28;828;-62
2021/06/07 10:53:01;;;;;;;;;;;;;;;22.34;52.67;100854.47;5018317;28;1977;-61
2021/06/07 10:55:28;;;;;;;;;;;;;;;22.62;51.82;100848.03;5035932;28;752;-61
2021/06/07 10:57:54;;;;;;;;;;;;;;;22.34;52.26;100850.88;5035662;28;1184;-64
2021/06/07 11:00:43;;;;;;;;;;;;;;;21.79;54.22;100854.50;5036618;28;741;-60
2021/06/07 11:03:16;;;;;;;;;;;;;;;21.62;53.88;100852.34;5029594;28;1173;-61
2021/06/07 11:05:41;;;;;;;;;;;;;;;21.55;54.64;100852.72;5035512;28;1143;-60
2021/06/07 11:08:06;;;;;;;;;;;;;;;22.15;53.13;100846.25;5035659;28;812;-60
2021/06/07 11:10:35;;;;;;;;;;;;;;;22.33;52.68;100838.97;5035834;28;863;-59
2021/06/07 11:13:04;;;;;;;;;;;;;;;22.52;51.88;100829.69;5035315;28;1918;-59
2021/06/07 11:15:32;;;;;;;;;;;;;;;22.01;53.60;100839.94;5035627;28;785;-59
2021/06/07 11:18:16;;;;;;;;;;;;;;;21.77;53.77;100829.88;5016972;28;1149;-61
2021/06/07 11:20:41;;;;;;;;;;;;;;;21.50;53.14;100839.78;5035678;28;780;-57
2021/06/07 11:23:07;;;;;;;;;;;;;;;21.65;54.50;100838.69;5034891;28;741;-58
2021/06/07 11:25:40;;;;;;;;;;;;;;;22.17;53.13;100834.88;5035877;28;749;-59
2021/06/07 11:28:24;;;;;;;;;;;;;;;22.41;52.26;100837.41;5039646;28;757;-60
2021/06/07 11:30:49;;;;;;;;;;;;;;;22.53;51.87;100823.81;5039540;28;804;-60
2021/06/07 11:33:14;;;;;;;;;;;;;;;22.13;52.99;100831.91;5037275;28;1922;-59
2021/06/07 11:35:43;;;;;;;;;;;;;;;21.62;54.64;100832.97;5021188;28;952;-59
2021/06/07 11:38:32;;;;;;;;;;;;;;;21.64;54.01;100820.47;5039052;28;1060;-53
2021/06/07 11:40:58;;;;;;;;;;;;;;;21.22;54.62;100830.59;5033981;28;1081;-58
2021/06/07 11:43:42;;;;;;;;;;;;;;;21.93;53.92;100829.56;5021310;28;788;-62
2021/06/07 11:46:07;;;;;;;;;;;;;;;22.38;52.40;100821.41;5039192;28;760;-64
2021/06/07 11:48:54;;;;;;;;;;;;;;;22.39;52.34;100817.50;5038839;28;1148;-62
2021/06/07 11:51:26;;;;;;;;;;;;;;;22.64;51.74;100823.59;5039022;28;744;-61
2021/06/07 11:53:52;;;;;;;;;;;;;;;21.99;53.52;100825.56;5038986;28;2332;-61
2021/06/07 11:56:20;;;;;;;;;;;;;;;21.83;53.99;100817.56;5039067;28;843;-57
2021/06/07 11:58:46;;;;;;;;;;;;;;;21.44;52.87;100821.63;5038504;28;822;-63
2021/06/07 12:01:12;;;;;;;;;;;;;;;21.67;54.45;100830.91;5039356;28;776;-63
2021/06/07 12:03:37;;;;;;;;;;;;;;;22.02;53.68;100836.00;5020793;28;1233;-63
2021/06/07 12:06:06;;;;;;;;;;;;;;;22.39;52.33;100817.50;5037416;28;1252;-58
2021/06/07 12:08:32;;;;;;;;;;;;;;;22.54;51.99;100808.84;5038916;28;780;-62
2021/06/07 12:10:58;;;;;;;;;;;;;;;22.75;51.24;100816.69;5038905;28;844;-59
2021/06/07 12:13:33;;;;;;;;;;;;;;;22.03;53.49;100823.81;5036994;28;1993;-61
2021/06/07 12:16:01;;;;;;;;;;;;;;;21.88;53.99;100817.47;5037671;28;1250;-57
2021/06/07 12:18:37;;;;;;;;;;;;;;;21.50;53.42;100809.34;5036763;28;991;-58
2021/06/07 12:21:03;;;;;;;;;;;;;;;21.30;55.04;100812.50;5038388;28;543;-61
2021/06/07 12:23:31;;;;;;;;;;;;;;;22.07;53.53;100812.94;5038711;28;814;-60
2021/06/07 12:28:38;;;;;;;;;;;;;;;22.56;51.80;100805.75;5038269;28;865;-62
2021/06/07 12:31:04;;;;;;;;;;;;;;;22.64;51.70;100806.97;5038610;28;824;-60
2021/06/07 12:33:33;;;;;;;;;;;;;;;22.09;53.15;100822.59;5019978;28;1975;-62
2021/06/07 12:35:58;;;;;;;;;;;;;;;21.97;53.64;100814.78;5038045;28;981;-61
2021/06/07 12:38:25;;;;;;;;;;;;;;;21.45;53.68;100812.22;5037558;28;800;-61
2021/06/07 12:40:51;;;;;;;;;;;;;;;21.51;55.29;100805.44;5037994;28;787;-58
2021/06/07 12:43:17;;;;;;;;;;;;;;;22.16;53.04;100806.38;5037628;28;812;-59
2021/06/07 12:45:45;;;;;;;;;;;;;;;22.35;52.54;100810.97;5038051;28;784;-57
2021/06/07 12:48:15;;;;;;;;;;;;;;;22.63;51.68;100813.63;5037701;28;968;-57
2021/06/07 12:50:41;;;;;;;;;;;;;;;22.14;52.98;100810.56;5037841;28;836;-59
2021/06/07 12:53:07;;;;;;;;;;;;;;;21.93;53.59;100804.66;5037728;28;2035;-59